createdAt,value
2019-04-07T14:47:42.474Z,34.20
2019-04-07T14:50:30.883Z,34.50
2019-04-07T14:53:26.513Z,35.30
2019-04-07T14:56:10.032Z,35.70
2019-04-07T14:58:58.894Z,35.70
2019-04-07T15:01:47.871Z,35.70
2019-04-07T15:04:18.193Z,34.80
2019-04-07T15:06:53.760Z,35.50
2019-04-07T15:09:32.392Z,34.80
2019-04-07T15:12:24.033Z,34.70
2019-04-07T15:14:52.622Z,35.10
2019-04-07T15:17:23.108Z,35.20
2019-04-07T15:19:53.569Z,35.30
2019-04-07T15:22:28.882Z,34.70
2019-04-07T15:24:57.005Z,34.70
2019-04-07T15:27:27.290Z,34.40
2019-04-07T15:29:57.812Z,34.40
2019-04-07T15:32:28.968Z,34.20
2019-04-07T15:35:00.113Z,33.70
2019-04-07T15:37:30.225Z,34.20
2019-04-07T15:40:02.682Z,34.60
2019-04-07T15:42:40.300Z,34.80
2019-04-07T15:45:04.905Z,35.30
2019-04-07T15:47:35.994Z,35.90
2019-04-07T15:50:08.489Z,35.30
2019-04-07T15:52:43.677Z,35.30
2019-04-07T15:55:13.486Z,35.20
2019-04-07T15:57:44.015Z,35.60
2019-04-07T16:00:15.345Z,35.90
2019-04-07T16:02:46.100Z,36.40
2019-04-07T16:05:16.183Z,36.60
2019-04-07T16:07:46.720Z,36.40
2019-04-07T16:10:21.232Z,35.90
2019-04-07T16:12:52.206Z,35.80
2019-04-07T16:15:23.189Z,36.20
2019-04-07T16:17:53.195Z,36.50
2019-04-07T16:20:26.278Z,36.80
2019-04-07T16:22:55.469Z,37.20
2019-04-07T16:25:30.703Z,37.40
2019-04-07T16:28:02.358Z,37.50
2019-04-07T16:30:32.806Z,37.70
2019-04-07T16:33:05.232Z,37.80
2019-04-07T16:35:34.954Z,37.50
2019-04-07T16:38:05.288Z,36.70
2019-04-07T16:40:35.232Z,36.90
2019-04-07T16:43:14.583Z,37.30
2019-04-07T16:45:40.025Z,37.20
2019-04-07T16:48:10.819Z,36.90
2019-04-07T16:50:41.771Z,36.70
2019-04-07T16:53:11.897Z,37.70
2019-04-07T16:55:46.605Z,37.20
2019-04-07T16:58:14.502Z,37.30
2019-04-07T17:00:47.481Z,37.70
2019-04-07T17:03:16.221Z,38.00
2019-04-07T17:05:46.353Z,37.90
2019-04-07T17:08:19.668Z,37.60
2019-04-07T17:10:48.619Z,37.80
2019-04-07T17:13:27.978Z,38.00
2019-04-07T17:15:51.982Z,38.20
2019-04-07T17:18:41.212Z,38.50
2019-04-07T17:21:14.005Z,38.90
2019-04-07T17:23:44.053Z,39.20
2019-04-07T17:26:14.252Z,39.50
2019-04-07T17:28:45.223Z,39.50
2019-04-07T17:31:15.720Z,40.00
2019-04-07T17:33:45.849Z,40.30
2019-04-07T17:36:20.116Z,40.80
2019-04-07T17:39:11.667Z,41.20
2019-04-07T17:41:41.740Z,41.60
2019-04-07T17:44:23.409Z,42.40
2019-04-07T17:47:11.647Z,42.80
2019-04-07T17:49:52.442Z,43.00
2019-04-07T17:52:48.293Z,43.60
2019-04-07T17:55:42.154Z,43.90
2019-04-07T17:58:22.201Z,44.90
2019-04-07T18:01:14.463Z,44.60
2019-04-07T18:04:13.966Z,44.70
2019-04-07T18:06:53.877Z,44.90
2019-04-07T18:09:35.795Z,45.20
2019-04-07T18:12:35.767Z,45.60
2019-04-07T18:15:25.192Z,46.00
2019-04-07T18:18:24.044Z,46.60
2019-04-07T18:21:02.402Z,47.70
2019-04-07T18:23:53.940Z,47.20
2019-04-07T18:26:41.571Z,47.60
2019-04-07T18:29:31.288Z,47.70
2019-04-07T18:32:36.252Z,47.80
2019-04-07T18:35:37.726Z,48.00
2019-04-07T18:38:21.797Z,48.10
2019-04-07T18:41:17.015Z,47.80
2019-04-07T18:44:15.197Z,47.90
2019-04-07T18:47:03.081Z,47.60
2019-04-07T18:49:55.033Z,47.60
2019-04-07T18:52:48.232Z,47.60
2019-04-07T18:55:38.994Z,47.80
2019-04-07T18:58:48.920Z,47.80
2019-04-07T19:01:46.909Z,47.90
2019-04-07T19:04:43.455Z,47.90
2019-04-07T19:07:24.688Z,48.20
2019-04-07T19:10:08.678Z,48.30
2019-04-07T19:12:49.523Z,48.80
2019-04-07T19:15:55.456Z,49.00
2019-04-07T19:18:36.597Z,48.90
2019-04-07T19:21:28.814Z,49.20
2019-04-07T19:24:18.390Z,49.30
2019-04-07T19:27:14.384Z,49.60
2019-04-07T19:29:55.349Z,50.00
2019-04-07T19:32:44.290Z,50.00
2019-04-07T19:35:41.915Z,50.30
2019-04-07T19:38:49.273Z,50.40
2019-04-07T19:41:48.874Z,50.40
2019-04-07T19:44:42.887Z,50.50
2019-04-07T19:47:22.717Z,50.70
2019-04-07T19:50:22.725Z,50.70
2019-04-07T19:53:14.304Z,50.80
2019-04-07T19:56:07.974Z,50.90
2019-04-07T19:58:59.835Z,51.20
2019-04-07T20:01:49.164Z,51.60
2019-04-07T20:04:51.031Z,51.40
2019-04-07T20:07:37.793Z,51.60
2019-04-07T20:10:38.692Z,51.80
2019-04-07T20:13:28.232Z,52.10
2019-04-07T20:16:16.403Z,52.10
2019-04-07T20:19:17.383Z,52.60
2019-04-07T20:21:56.871Z,52.20
2019-04-07T20:24:40.076Z,52.10
2019-04-07T20:27:26.063Z,52.10
2019-04-07T20:30:16.019Z,51.90
2019-04-07T20:33:00.715Z,51.40
2019-04-07T20:35:50.057Z,51.00
2019-04-07T20:38:42.224Z,50.90
2019-04-07T20:41:37.947Z,50.70
2019-04-07T20:44:32.543Z,50.80
2019-04-07T20:47:20.945Z,50.50
2019-04-07T20:50:14.331Z,50.50
2019-04-07T20:53:13.111Z,50.90
2019-04-07T20:55:51.961Z,51.00
2019-04-07T20:58:57.401Z,51.10
2019-04-07T21:01:58.706Z,51.10
2019-04-07T21:04:36.338Z,51.10
2019-04-07T21:07:25.393Z,51.60
2019-04-07T21:10:09.816Z,51.40
2019-04-07T21:12:58.206Z,51.60
2019-04-07T21:15:46.593Z,51.80
2019-04-07T21:18:39.135Z,51.80
2019-04-07T21:21:17.190Z,51.90
2019-04-07T21:24:05.746Z,51.60
2019-04-07T21:26:58.083Z,51.80
2019-04-07T21:29:34.465Z,51.80
2019-04-07T21:32:21.584Z,51.80
2019-04-07T21:35:13.723Z,51.80
2019-04-07T21:37:51.907Z,51.50
2019-04-07T21:40:42.284Z,51.40
2019-04-07T21:43:18.337Z,51.30
2019-04-07T21:46:06.696Z,51.30
2019-04-07T21:49:02.643Z,51.40
2019-04-07T21:51:48.371Z,51.40
2019-04-07T21:54:37.516Z,51.40
2019-04-07T21:57:21.408Z,51.40
2019-04-07T22:00:27.081Z,51.50
2019-04-07T22:03:16.830Z,51.40
2019-04-07T22:06:04.743Z,51.60
2019-04-07T22:08:43.963Z,51.40
2019-04-07T22:11:15.528Z,51.40
2019-04-07T22:13:45.615Z,51.40
2019-04-07T22:16:16.335Z,51.30
2019-04-07T22:18:47.052Z,51.30
2019-04-07T22:21:17.303Z,51.30
2019-04-07T22:23:47.108Z,51.30
2019-04-07T22:26:19.143Z,51.30
2019-04-07T22:28:48.495Z,51.30
2019-04-07T22:31:23.603Z,51.40
2019-04-07T22:33:56.856Z,51.90
2019-04-07T22:36:25.862Z,51.40
2019-04-07T22:38:58.740Z,51.30
2019-04-07T22:41:28.156Z,51.20
2019-04-07T22:43:58.185Z,51.30
2019-04-07T22:46:29.020Z,51.40
2019-04-07T22:48:59.638Z,51.40
2019-04-07T22:51:30.649Z,51.70
2019-04-07T22:54:01.493Z,51.70
2019-04-07T22:56:36.393Z,51.80
2019-04-07T22:59:04.222Z,52.00
2019-04-07T23:01:35.414Z,52.00
2019-04-07T23:04:05.628Z,52.20
2019-04-07T23:06:36.240Z,52.30
2019-04-07T23:09:07.883Z,52.30
2019-04-07T23:11:37.930Z,52.40
2019-04-07T23:14:07.865Z,52.60
2019-04-07T23:16:38.045Z,52.50
2019-04-07T23:19:08.834Z,52.50
2019-04-07T23:21:39.475Z,52.50
2019-04-07T23:24:10.851Z,52.60
2019-04-07T23:26:42.574Z,52.60
2019-04-07T23:29:12.608Z,52.70
2019-04-07T23:31:44.047Z,52.60
2019-04-07T23:34:14.733Z,52.50
2019-04-07T23:36:45.647Z,52.60
2019-04-07T23:39:15.654Z,52.60
2019-04-07T23:41:45.685Z,52.70
2019-04-07T23:44:16.085Z,52.60
2019-04-07T23:46:46.235Z,52.80
2019-04-07T23:49:16.066Z,52.70
2019-04-07T23:51:45.915Z,52.60
2019-04-07T23:54:16.430Z,52.50
2019-04-07T23:56:46.480Z,52.50
2019-04-07T23:59:16.788Z,52.60
